sensor_id;sensor_type;location;lat;lon;timestamp;P1;durP1;ratioP1;P2;durP2;ratioP2
12725;SDS011;6427;49.754;6.106;2022-07-29T00:00:53;7.30;;;2.20;;
12725;SDS011;6427;49.754;6.106;2022-07-29T00:03:20;6.63;;;2.43;;
12725;SDS011;6427;49.754;6.106;2022-07-29T00:05:48;4.07;;;1.97;;
12725;SDS011;6427;49.754;6.106;2022-07-29T00:08:15;4.60;;;2.07;;
12725;SDS011;6427;49.754;6.106;2022-07-29T00:10:43;3.93;;;1.63;;
12725;SDS011;6427;49.754;6.106;2022-07-29T00:13:11;3.30;;;2.10;;
12725;SDS011;6427;49.754;6.106;2022-07-29T00:15:39;5.67;;;2.40;;
12725;SDS011;6427;49.754;6.106;2022-07-29T00:18:07;3.87;;;2.20;;
12725;SDS011;6427;49.754;6.106;2022-07-29T00:20:35;3.43;;;2.00;;
12725;SDS011;6427;49.754;6.106;2022-07-29T00:23:03;5.97;;;2.30;;
12725;SDS011;6427;49.754;6.106;2022-07-29T00:25:31;5.05;;;2.30;;
12725;SDS011;6427;49.754;6.106;2022-07-29T00:27:58;5.67;;;2.20;;
12725;SDS011;6427;49.754;6.106;2022-07-29T00:30:27;5.85;;;2.10;;
12725;SDS011;6427;49.754;6.106;2022-07-29T00:32:54;5.27;;;2.27;;
12725;SDS011;6427;49.754;6.106;2022-07-29T00:35:22;3.50;;;2.23;;
12725;SDS011;6427;49.754;6.106;2022-07-29T00:38:08;2.43;;;1.97;;
12725;SDS011;6427;49.754;6.106;2022-07-29T00:40:35;2.27;;;2.00;;
12725;SDS011;6427;49.754;6.106;2022-07-29T00:43:03;5.43;;;1.80;;
12725;SDS011;6427;49.754;6.106;2022-07-29T00:45:30;5.00;;;2.30;;
12725;SDS011;6427;49.754;6.106;2022-07-29T00:47:58;5.40;;;2.30;;
12725;SDS011;6427;49.754;6.106;2022-07-29T00:50:26;4.97;;;2.10;;
12725;SDS011;6427;49.754;6.106;2022-07-29T00:52:54;1.97;;;1.73;;
12725;SDS011;6427;49.754;6.106;2022-07-29T00:55:21;2.70;;;1.80;;
12725;SDS011;6427;49.754;6.106;2022-07-29T00:57:49;5.40;;;2.10;;
12725;SDS011;6427;49.754;6.106;2022-07-29T01:00:18;6.00;;;2.30;;
12725;SDS011;6427;49.754;6.106;2022-07-29T01:02:45;2.57;;;1.90;;
12725;SDS011;6427;49.754;6.106;2022-07-29T01:05:12;4.35;;;2.10;;
12725;SDS011;6427;49.754;6.106;2022-07-29T01:07:40;2.87;;;2.10;;
12725;SDS011;6427;49.754;6.106;2022-07-29T01:10:09;3.03;;;1.97;;
12725;SDS011;6427;49.754;6.106;2022-07-29T01:12:36;4.77;;;2.30;;
12725;SDS011;6427;49.754;6.106;2022-07-29T01:15:05;3.97;;;2.20;;
12725;SDS011;6427;49.754;6.106;2022-07-29T01:17:48;6.03;;;2.47;;
12725;SDS011;6427;49.754;6.106;2022-07-29T01:34:31;5.37;;;2.87;;
12725;SDS011;6427;49.754;6.106;2022-07-29T01:37:01;3.13;;;2.83;;
12725;SDS011;6427;49.754;6.106;2022-07-29T01:39:33;4.37;;;2.60;;
12725;SDS011;6427;49.754;6.106;2022-07-29T01:42:12;5.67;;;2.93;;
12725;SDS011;6427;49.754;6.106;2022-07-29T01:44:45;6.07;;;2.20;;
12725;SDS011;6427;49.754;6.106;2022-07-29T01:47:33;4.27;;;2.27;;
12725;SDS011;6427;49.754;6.106;2022-07-29T01:50:00;4.87;;;2.65;;
12725;SDS011;6427;49.754;6.106;2022-07-29T01:52:31;5.93;;;2.62;;
12725;SDS011;6427;49.754;6.106;2022-07-29T01:54:58;6.20;;;2.23;;
12725;SDS011;6427;49.754;6.106;2022-07-29T01:57:26;3.67;;;2.30;;
12725;SDS011;6427;49.754;6.106;2022-07-29T01:59:53;4.50;;;2.53;;
12725;SDS011;6427;49.754;6.106;2022-07-29T02:02:21;4.35;;;2.60;;
12725;SDS011;6427;49.754;6.106;2022-07-29T02:04:49;6.23;;;2.73;;
12725;SDS011;6427;49.754;6.106;2022-07-29T02:07:18;4.00;;;2.92;;
12725;SDS011;6427;49.754;6.106;2022-07-29T02:09:45;4.37;;;2.70;;
12725;SDS011;6427;49.754;6.106;2022-07-29T02:12:13;4.50;;;3.20;;
12725;SDS011;6427;49.754;6.106;2022-07-29T02:14:43;5.90;;;2.50;;
12725;SDS011;6427;49.754;6.106;2022-07-29T02:17:08;4.97;;;2.37;;
12725;SDS011;6427;49.754;6.106;2022-07-29T02:19:36;5.12;;;2.75;;
12725;SDS011;6427;49.754;6.106;2022-07-29T02:22:03;5.93;;;2.93;;
12725;SDS011;6427;49.754;6.106;2022-07-29T02:24:31;6.37;;;2.90;;
12725;SDS011;6427;49.754;6.106;2022-07-29T02:26:59;6.50;;;2.80;;
12725;SDS011;6427;49.754;6.106;2022-07-29T02:29:28;5.78;;;3.10;;
12725;SDS011;6427;49.754;6.106;2022-07-29T02:31:55;3.77;;;2.50;;
12725;SDS011;6427;49.754;6.106;2022-07-29T02:34:23;4.93;;;2.53;;
12725;SDS011;6427;49.754;6.106;2022-07-29T02:36:51;3.30;;;2.77;;
12725;SDS011;6427;49.754;6.106;2022-07-29T02:39:19;4.87;;;2.63;;
12725;SDS011;6427;49.754;6.106;2022-07-29T02:41:48;5.17;;;2.90;;
12725;SDS011;6427;49.754;6.106;2022-07-29T02:44:18;3.73;;;2.43;;
12725;SDS011;6427;49.754;6.106;2022-07-29T02:46:52;4.72;;;2.90;;
12725;SDS011;6427;49.754;6.106;2022-07-29T02:49:29;8.20;;;3.40;;
12725;SDS011;6427;49.754;6.106;2022-07-29T02:51:54;8.30;;;2.80;;
12725;SDS011;6427;49.754;6.106;2022-07-29T02:54:23;5.97;;;2.50;;
12725;SDS011;6427;49.754;6.106;2022-07-29T02:56:50;3.70;;;2.33;;
12725;SDS011;6427;49.754;6.106;2022-07-29T02:59:17;4.43;;;2.70;;
12725;SDS011;6427;49.754;6.106;2022-07-29T03:01:46;5.62;;;2.53;;
12725;SDS011;6427;49.754;6.106;2022-07-29T03:04:13;5.43;;;2.23;;
12725;SDS011;6427;49.754;6.106;2022-07-29T03:06:42;6.37;;;2.58;;
12725;SDS011;6427;49.754;6.106;2022-07-29T03:09:10;3.70;;;2.30;;
12725;SDS011;6427;49.754;6.106;2022-07-29T03:11:37;4.00;;;2.73;;
12725;SDS011;6427;49.754;6.106;2022-07-29T03:14:04;4.53;;;2.70;;
12725;SDS011;6427;49.754;6.106;2022-07-29T03:16:32;3.40;;;2.83;;
12725;SDS011;6427;49.754;6.106;2022-07-29T03:19:00;5.47;;;3.00;;
12725;SDS011;6427;49.754;6.106;2022-07-29T03:21:28;3.90;;;3.00;;
12725;SDS011;6427;49.754;6.106;2022-07-29T03:23:55;10.30;;;2.87;;
12725;SDS011;6427;49.754;6.106;2022-07-29T03:26:23;5.37;;;3.37;;
12725;SDS011;6427;49.754;6.106;2022-07-29T03:28:51;3.13;;;2.80;;
12725;SDS011;6427;49.754;6.106;2022-07-29T03:31:18;6.60;;;2.53;;
12725;SDS011;6427;49.754;6.106;2022-07-29T03:33:47;3.93;;;2.77;;
12725;SDS011;6427;49.754;6.106;2022-07-29T03:36:15;4.37;;;3.12;;
12725;SDS011;6427;49.754;6.106;2022-07-29T03:38:43;7.40;;;3.17;;
12725;SDS011;6427;49.754;6.106;2022-07-29T03:41:11;5.03;;;3.20;;
12725;SDS011;6427;49.754;6.106;2022-07-29T03:43:39;5.33;;;2.50;;
12725;SDS011;6427;49.754;6.106;2022-07-29T03:46:07;7.77;;;2.50;;
12725;SDS011;6427;49.754;6.106;2022-07-29T03:48:35;3.95;;;3.20;;
12725;SDS011;6427;49.754;6.106;2022-07-29T03:51:02;8.00;;;3.30;;
12725;SDS011;6427;49.754;6.106;2022-07-29T03:53:30;4.05;;;2.87;;
12725;SDS011;6427;49.754;6.106;2022-07-29T03:55:58;4.05;;;3.00;;
12725;SDS011;6427;49.754;6.106;2022-07-29T03:58:26;4.63;;;3.20;;
12725;SDS011;6427;49.754;6.106;2022-07-29T04:00:53;3.87;;;3.03;;
12725;SDS011;6427;49.754;6.106;2022-07-29T04:03:21;5.90;;;3.00;;
12725;SDS011;6427;49.754;6.106;2022-07-29T04:06:01;3.87;;;2.60;;
12725;SDS011;6427;49.754;6.106;2022-07-29T04:08:30;4.03;;;2.67;;
12725;SDS011;6427;49.754;6.106;2022-07-29T04:10:59;3.97;;;3.10;;
12725;SDS011;6427;49.754;6.106;2022-07-29T04:13:26;3.10;;;2.77;;
12725;SDS011;6427;49.754;6.106;2022-07-29T04:15:54;7.47;;;3.15;;
12725;SDS011;6427;49.754;6.106;2022-07-29T04:18:21;5.50;;;2.70;;
12725;SDS011;6427;49.754;6.106;2022-07-29T04:20:49;5.93;;;3.37;;
12725;SDS011;6427;49.754;6.106;2022-07-29T04:23:17;5.13;;;3.13;;
12725;SDS011;6427;49.754;6.106;2022-07-29T04:25:45;8.80;;;3.47;;
12725;SDS011;6427;49.754;6.106;2022-07-29T04:28:13;8.57;;;3.40;;
12725;SDS011;6427;49.754;6.106;2022-07-29T04:30:42;4.07;;;3.40;;
12725;SDS011;6427;49.754;6.106;2022-07-29T04:33:10;5.60;;;3.30;;
12725;SDS011;6427;49.754;6.106;2022-07-29T04:35:38;4.67;;;3.73;;
12725;SDS011;6427;49.754;6.106;2022-07-29T04:38:05;4.03;;;3.40;;
12725;SDS011;6427;49.754;6.106;2022-07-29T04:40:34;6.15;;;3.90;;
12725;SDS011;6427;49.754;6.106;2022-07-29T04:43:02;4.20;;;3.10;;
12725;SDS011;6427;49.754;6.106;2022-07-29T04:45:30;5.50;;;3.50;;
12725;SDS011;6427;49.754;6.106;2022-07-29T04:47:58;5.67;;;3.57;;
12725;SDS011;6427;49.754;6.106;2022-07-29T04:50:25;5.07;;;3.70;;
12725;SDS011;6427;49.754;6.106;2022-07-29T04:52:54;5.97;;;3.70;;
12725;SDS011;6427;49.754;6.106;2022-07-29T04:55:21;3.77;;;3.13;;
12725;SDS011;6427;49.754;6.106;2022-07-29T04:57:49;5.07;;;3.10;;
12725;SDS011;6427;49.754;6.106;2022-07-29T05:00:17;6.83;;;3.60;;
12725;SDS011;6427;49.754;6.106;2022-07-29T05:02:44;4.10;;;3.10;;
12725;SDS011;6427;49.754;6.106;2022-07-29T05:05:12;5.00;;;3.60;;
12725;SDS011;6427;49.754;6.106;2022-07-29T05:07:40;5.33;;;3.43;;
12725;SDS011;6427;49.754;6.106;2022-07-29T05:10:07;7.33;;;3.47;;
12725;SDS011;6427;49.754;6.106;2022-07-29T05:12:35;6.13;;;3.03;;
12725;SDS011;6427;49.754;6.106;2022-07-29T05:15:02;3.83;;;3.00;;
12725;SDS011;6427;49.754;6.106;2022-07-29T05:17:31;3.63;;;3.30;;
12725;SDS011;6427;49.754;6.106;2022-07-29T05:19:58;4.97;;;3.70;;
12725;SDS011;6427;49.754;6.106;2022-07-29T05:22:27;7.10;;;4.17;;
12725;SDS011;6427;49.754;6.106;2022-07-29T05:24:55;6.85;;;4.10;;
12725;SDS011;6427;49.754;6.106;2022-07-29T05:27:23;9.87;;;3.93;;
12725;SDS011;6427;49.754;6.106;2022-07-29T05:29:51;5.57;;;4.07;;
12725;SDS011;6427;49.754;6.106;2022-07-29T05:32:19;5.00;;;4.25;;
12725;SDS011;6427;49.754;6.106;2022-07-29T05:34:47;6.60;;;4.33;;
12725;SDS011;6427;49.754;6.106;2022-07-29T05:37:15;8.50;;;3.80;;
12725;SDS011;6427;49.754;6.106;2022-07-29T05:39:43;6.57;;;4.00;;
12725;SDS011;6427;49.754;6.106;2022-07-29T05:42:10;6.50;;;3.80;;
12725;SDS011;6427;49.754;6.106;2022-07-29T05:44:39;9.87;;;3.93;;
12725;SDS011;6427;49.754;6.106;2022-07-29T05:47:07;4.93;;;3.53;;
12725;SDS011;6427;49.754;6.106;2022-07-29T05:49:35;6.53;;;4.37;;
12725;SDS011;6427;49.754;6.106;2022-07-29T05:52:02;8.07;;;4.23;;
12725;SDS011;6427;49.754;6.106;2022-07-29T05:54:30;5.00;;;4.00;;
12725;SDS011;6427;49.754;6.106;2022-07-29T05:56:58;5.73;;;3.57;;
12725;SDS011;6427;49.754;6.106;2022-07-29T05:59:26;6.77;;;4.40;;
12725;SDS011;6427;49.754;6.106;2022-07-29T06:01:53;7.75;;;4.10;;
12725;SDS011;6427;49.754;6.106;2022-07-29T06:04:21;7.25;;;4.70;;
12725;SDS011;6427;49.754;6.106;2022-07-29T06:06:50;6.33;;;4.07;;
12725;SDS011;6427;49.754;6.106;2022-07-29T06:09:17;9.40;;;4.70;;
12725;SDS011;6427;49.754;6.106;2022-07-29T06:11:45;7.77;;;4.30;;
12725;SDS011;6427;49.754;6.106;2022-07-29T06:14:13;6.67;;;4.03;;
12725;SDS011;6427;49.754;6.106;2022-07-29T06:16:41;5.43;;;4.20;;
12725;SDS011;6427;49.754;6.106;2022-07-29T06:19:09;5.43;;;4.27;;
12725;SDS011;6427;49.754;6.106;2022-07-29T06:21:36;6.33;;;4.13;;
12725;SDS011;6427;49.754;6.106;2022-07-29T06:24:04;5.63;;;4.37;;
12725;SDS011;6427;49.754;6.106;2022-07-29T06:26:31;5.77;;;3.90;;
12725;SDS011;6427;49.754;6.106;2022-07-29T06:28:59;7.83;;;4.13;;
12725;SDS011;6427;49.754;6.106;2022-07-29T06:31:27;7.90;;;4.00;;
12725;SDS011;6427;49.754;6.106;2022-07-29T06:33:55;6.10;;;4.15;;
12725;SDS011;6427;49.754;6.106;2022-07-29T06:36:23;4.67;;;3.57;;
12725;SDS011;6427;49.754;6.106;2022-07-29T06:38:51;5.57;;;3.80;;
12725;SDS011;6427;49.754;6.106;2022-07-29T06:41:19;5.62;;;4.03;;
12725;SDS011;6427;49.754;6.106;2022-07-29T06:43:48;4.73;;;3.50;;
12725;SDS011;6427;49.754;6.106;2022-07-29T06:46:16;6.53;;;3.47;;
12725;SDS011;6427;49.754;6.106;2022-07-29T06:48:43;6.93;;;3.40;;
12725;SDS011;6427;49.754;6.106;2022-07-29T06:51:10;4.20;;;3.28;;
12725;SDS011;6427;49.754;6.106;2022-07-29T06:53:38;3.77;;;3.23;;
12725;SDS011;6427;49.754;6.106;2022-07-29T06:56:06;6.10;;;3.10;;
12725;SDS011;6427;49.754;6.106;2022-07-29T06:58:34;5.25;;;3.08;;
12725;SDS011;6427;49.754;6.106;2022-07-29T07:01:03;3.07;;;2.27;;
12725;SDS011;6427;49.754;6.106;2022-07-29T07:03:30;7.33;;;2.40;;
12725;SDS011;6427;49.754;6.106;2022-07-29T07:05:59;3.83;;;2.33;;
12725;SDS011;6427;49.754;6.106;2022-07-29T07:08:26;3.93;;;1.93;;
12725;SDS011;6427;49.754;6.106;2022-07-29T07:10:55;4.63;;;2.33;;
12725;SDS011;6427;49.754;6.106;2022-07-29T07:13:23;3.60;;;2.30;;
12725;SDS011;6427;49.754;6.106;2022-07-29T07:15:50;3.90;;;2.20;;
12725;SDS011;6427;49.754;6.106;2022-07-29T07:18:18;4.30;;;2.10;;
12725;SDS011;6427;49.754;6.106;2022-07-29T07:20:46;3.50;;;1.90;;
12725;SDS011;6427;49.754;6.106;2022-07-29T07:23:13;4.80;;;2.13;;
12725;SDS011;6427;49.754;6.106;2022-07-29T07:25:41;6.53;;;2.17;;
12725;SDS011;6427;49.754;6.106;2022-07-29T07:28:09;6.55;;;2.25;;
12725;SDS011;6427;49.754;6.106;2022-07-29T07:30:37;4.28;;;1.75;;
12725;SDS011;6427;49.754;6.106;2022-07-29T07:33:05;3.90;;;1.70;;
12725;SDS011;6427;49.754;6.106;2022-07-29T07:35:33;4.40;;;1.87;;
12725;SDS011;6427;49.754;6.106;2022-07-29T07:38:01;4.55;;;1.90;;
12725;SDS011;6427;49.754;6.106;2022-07-29T07:40:29;4.33;;;1.50;;
12725;SDS011;6427;49.754;6.106;2022-07-29T07:42:57;4.77;;;1.60;;
12725;SDS011;6427;49.754;6.106;2022-07-29T07:45:24;2.53;;;1.70;;
12725;SDS011;6427;49.754;6.106;2022-07-29T07:47:52;3.33;;;1.80;;
12725;SDS011;6427;49.754;6.106;2022-07-29T07:50:20;5.60;;;2.00;;
12725;SDS011;6427;49.754;6.106;2022-07-29T07:52:49;3.27;;;2.20;;
12725;SDS011;6427;49.754;6.106;2022-07-29T07:55:18;8.70;;;1.93;;
12725;SDS011;6427;49.754;6.106;2022-07-29T07:57:46;8.97;;;2.10;;
12725;SDS011;6427;49.754;6.106;2022-07-29T08:00:15;3.00;;;1.80;;
12725;SDS011;6427;49.754;6.106;2022-07-29T08:02:42;4.00;;;1.90;;
12725;SDS011;6427;49.754;6.106;2022-07-29T08:05:13;5.35;;;2.10;;
12725;SDS011;6427;49.754;6.106;2022-07-29T08:07:41;3.30;;;1.87;;
12725;SDS011;6427;49.754;6.106;2022-07-29T08:10:08;4.73;;;2.10;;
12725;SDS011;6427;49.754;6.106;2022-07-29T08:12:36;4.93;;;2.25;;
12725;SDS011;6427;49.754;6.106;2022-07-29T08:15:03;4.77;;;2.60;;
12725;SDS011;6427;49.754;6.106;2022-07-29T08:17:31;4.53;;;2.20;;
12725;SDS011;6427;49.754;6.106;2022-07-29T08:19:59;7.82;;;2.50;;
12725;SDS011;6427;49.754;6.106;2022-07-29T08:22:26;5.25;;;2.30;;
12725;SDS011;6427;49.754;6.106;2022-07-29T08:24:54;6.30;;;2.77;;
12725;SDS011;6427;49.754;6.106;2022-07-29T08:27:22;6.00;;;2.20;;
12725;SDS011;6427;49.754;6.106;2022-07-29T08:29:49;5.93;;;2.27;;
12725;SDS011;6427;49.754;6.106;2022-07-29T08:32:17;8.77;;;2.42;;
12725;SDS011;6427;49.754;6.106;2022-07-29T08:34:44;4.15;;;2.30;;
12725;SDS011;6427;49.754;6.106;2022-07-29T08:37:12;4.77;;;2.40;;
12725;SDS011;6427;49.754;6.106;2022-07-29T08:39:39;5.63;;;2.80;;
12725;SDS011;6427;49.754;6.106;2022-07-29T08:42:08;5.80;;;2.42;;
12725;SDS011;6427;49.754;6.106;2022-07-29T08:44:35;6.83;;;2.50;;
12725;SDS011;6427;49.754;6.106;2022-07-29T08:47:04;5.13;;;1.97;;
12725;SDS011;6427;49.754;6.106;2022-07-29T08:49:35;6.87;;;2.40;;
12725;SDS011;6427;49.754;6.106;2022-07-29T08:52:02;5.30;;;2.50;;
12725;SDS011;6427;49.754;6.106;2022-07-29T08:54:30;7.63;;;2.40;;
12725;SDS011;6427;49.754;6.106;2022-07-29T08:56:58;4.68;;;2.37;;
12725;SDS011;6427;49.754;6.106;2022-07-29T08:59:26;5.20;;;2.80;;
12725;SDS011;6427;49.754;6.106;2022-07-29T09:01:53;6.43;;;2.37;;
12725;SDS011;6427;49.754;6.106;2022-07-29T09:04:21;5.57;;;2.20;;
12725;SDS011;6427;49.754;6.106;2022-07-29T09:06:49;4.30;;;2.03;;
12725;SDS011;6427;49.754;6.106;2022-07-29T09:09:17;5.13;;;2.10;;
12725;SDS011;6427;49.754;6.106;2022-07-29T09:11:45;4.93;;;2.63;;
12725;SDS011;6427;49.754;6.106;2022-07-29T09:14:13;9.53;;;2.80;;
12725;SDS011;6427;49.754;6.106;2022-07-29T09:21:59;4.73;;;2.30;;
12725;SDS011;6427;49.754;6.106;2022-07-29T09:24:26;5.80;;;2.53;;
12725;SDS011;6427;49.754;6.106;2022-07-29T09:26:53;3.87;;;2.13;;
12725;SDS011;6427;49.754;6.106;2022-07-29T09:29:21;3.90;;;2.43;;
12725;SDS011;6427;49.754;6.106;2022-07-29T09:31:49;4.57;;;2.17;;
12725;SDS011;6427;49.754;6.106;2022-07-29T09:34:24;4.80;;;2.10;;
12725;SDS011;6427;49.754;6.106;2022-07-29T09:36:50;3.23;;;2.03;;
12725;SDS011;6427;49.754;6.106;2022-07-29T09:39:37;2.90;;;2.33;;
12725;SDS011;6427;49.754;6.106;2022-07-29T09:42:04;3.83;;;2.60;;
12725;SDS011;6427;49.754;6.106;2022-07-29T09:44:42;3.13;;;2.20;;
12725;SDS011;6427;49.754;6.106;2022-07-29T09:47:09;8.27;;;2.03;;
12725;SDS011;6427;49.754;6.106;2022-07-29T09:49:53;4.57;;;2.27;;
12725;SDS011;6427;49.754;6.106;2022-07-29T09:52:25;6.50;;;2.37;;
12725;SDS011;6427;49.754;6.106;2022-07-29T09:55:04;3.03;;;2.20;;
12725;SDS011;6427;49.754;6.106;2022-07-29T09:57:22;6.83;;;2.47;;
12725;SDS011;6427;49.754;6.106;2022-07-29T09:59:56;2.87;;;2.07;;
12725;SDS011;6427;49.754;6.106;2022-07-29T10:02:23;6.53;;;2.57;;
12725;SDS011;6427;49.754;6.106;2022-07-29T10:04:50;3.40;;;2.47;;
12725;SDS011;6427;49.754;6.106;2022-07-29T10:07:18;5.43;;;2.27;;
12725;SDS011;6427;49.754;6.106;2022-07-29T10:09:50;3.10;;;2.40;;
12725;SDS011;6427;49.754;6.106;2022-07-29T10:12:16;5.93;;;2.20;;
12725;SDS011;6427;49.754;6.106;2022-07-29T10:14:45;5.93;;;2.33;;
12725;SDS011;6427;49.754;6.106;2022-07-29T10:17:12;5.60;;;2.37;;
12725;SDS011;6427;49.754;6.106;2022-07-29T10:19:40;5.13;;;2.57;;
12725;SDS011;6427;49.754;6.106;2022-07-29T10:22:08;4.67;;;2.50;;
12725;SDS011;6427;49.754;6.106;2022-07-29T10:24:36;5.70;;;2.33;;
12725;SDS011;6427;49.754;6.106;2022-07-29T10:27:05;5.93;;;1.90;;
12725;SDS011;6427;49.754;6.106;2022-07-29T10:29:31;5.13;;;2.07;;
12725;SDS011;6427;49.754;6.106;2022-07-29T10:40:25;4.73;;;2.00;;
12725;SDS011;6427;49.754;6.106;2022-07-29T10:43:29;5.83;;;2.40;;
12725;SDS011;6427;49.754;6.106;2022-07-29T10:45:48;5.28;;;2.17;;
12725;SDS011;6427;49.754;6.106;2022-07-29T10:48:15;4.10;;;2.40;;
12725;SDS011;6427;49.754;6.106;2022-07-29T10:50:52;6.27;;;2.30;;
12725;SDS011;6427;49.754;6.106;2022-07-29T10:53:20;4.07;;;1.93;;
12725;SDS011;6427;49.754;6.106;2022-07-29T10:55:48;3.30;;;1.97;;
12725;SDS011;6427;49.754;6.106;2022-07-29T10:58:17;3.13;;;2.27;;
12725;SDS011;6427;49.754;6.106;2022-07-29T11:00:44;3.27;;;2.23;;
12725;SDS011;6427;49.754;6.106;2022-07-29T11:03:55;6.20;;;2.23;;
12725;SDS011;6427;49.754;6.106;2022-07-29T11:06:01;5.10;;;2.00;;
12725;SDS011;6427;49.754;6.106;2022-07-29T11:08:28;5.50;;;2.70;;
12725;SDS011;6427;49.754;6.106;2022-07-29T11:13:47;6.73;;;2.17;;
12725;SDS011;6427;49.754;6.106;2022-07-29T11:16:14;2.57;;;2.10;;
12725;SDS011;6427;49.754;6.106;2022-07-29T11:21:38;3.87;;;2.10;;
12725;SDS011;6427;49.754;6.106;2022-07-29T11:24:13;7.93;;;2.17;;
12725;SDS011;6427;49.754;6.106;2022-07-29T11:26:41;6.57;;;2.60;;
12725;SDS011;6427;49.754;6.106;2022-07-29T11:29:19;2.67;;;2.13;;
12725;SDS011;6427;49.754;6.106;2022-07-29T11:31:47;7.33;;;2.60;;
12725;SDS011;6427;49.754;6.106;2022-07-29T11:39:35;4.20;;;2.80;;
12725;SDS011;6427;49.754;6.106;2022-07-29T11:47:35;6.23;;;2.90;;
12725;SDS011;6427;49.754;6.106;2022-07-29T11:50:03;4.72;;;2.42;;
12725;SDS011;6427;49.754;6.106;2022-07-29T11:52:40;5.60;;;2.50;;
12725;SDS011;6427;49.754;6.106;2022-07-29T11:55:10;3.57;;;2.20;;
12725;SDS011;6427;49.754;6.106;2022-07-29T11:57:37;4.30;;;2.53;;
12725;SDS011;6427;49.754;6.106;2022-07-29T12:00:06;6.67;;;2.20;;
12725;SDS011;6427;49.754;6.106;2022-07-29T12:02:39;2.50;;;2.03;;
12725;SDS011;6427;49.754;6.106;2022-07-29T12:05:07;2.93;;;2.37;;
12725;SDS011;6427;49.754;6.106;2022-07-29T12:07:34;3.23;;;2.23;;
12725;SDS011;6427;49.754;6.106;2022-07-29T12:10:02;5.57;;;2.60;;
12725;SDS011;6427;49.754;6.106;2022-07-29T12:12:29;3.90;;;2.10;;
12725;SDS011;6427;49.754;6.106;2022-07-29T12:14:57;2.97;;;2.10;;
12725;SDS011;6427;49.754;6.106;2022-07-29T12:19:52;3.63;;;2.07;;
12725;SDS011;6427;49.754;6.106;2022-07-29T12:22:26;2.90;;;2.10;;
12725;SDS011;6427;49.754;6.106;2022-07-29T12:24:54;3.20;;;2.00;;
12725;SDS011;6427;49.754;6.106;2022-07-29T12:27:22;4.30;;;2.13;;
12725;SDS011;6427;49.754;6.106;2022-07-29T12:29:57;5.75;;;2.62;;
12725;SDS011;6427;49.754;6.106;2022-07-29T12:32:24;4.50;;;2.63;;
12725;SDS011;6427;49.754;6.106;2022-07-29T12:34:51;4.30;;;2.20;;
12725;SDS011;6427;49.754;6.106;2022-07-29T12:37:19;3.47;;;2.30;;
12725;SDS011;6427;49.754;6.106;2022-07-29T12:39:47;3.23;;;2.10;;
12725;SDS011;6427;49.754;6.106;2022-07-29T12:42:15;3.60;;;2.10;;
12725;SDS011;6427;49.754;6.106;2022-07-29T12:44:43;3.07;;;1.80;;
12725;SDS011;6427;49.754;6.106;2022-07-29T12:47:10;4.78;;;2.08;;
12725;SDS011;6427;49.754;6.106;2022-07-29T12:49:38;5.03;;;2.10;;
12725;SDS011;6427;49.754;6.106;2022-07-29T12:52:51;5.73;;;2.17;;
12725;SDS011;6427;49.754;6.106;2022-07-29T12:54:51;3.10;;;1.97;;
12725;SDS011;6427;49.754;6.106;2022-07-29T12:57:19;7.97;;;2.30;;
12725;SDS011;6427;49.754;6.106;2022-07-29T13:00:09;2.43;;;2.03;;
12725;SDS011;6427;49.754;6.106;2022-07-29T13:02:21;6.70;;;1.90;;
12725;SDS011;6427;49.754;6.106;2022-07-29T13:05:00;6.27;;;2.30;;
12725;SDS011;6427;49.754;6.106;2022-07-29T13:07:25;2.87;;;2.00;;
12725;SDS011;6427;49.754;6.106;2022-07-29T13:09:52;4.83;;;1.90;;
12725;SDS011;6427;49.754;6.106;2022-07-29T13:12:20;5.55;;;2.20;;
12725;SDS011;6427;49.754;6.106;2022-07-29T13:14:49;6.67;;;2.10;;
12725;SDS011;6427;49.754;6.106;2022-07-29T13:17:21;6.27;;;2.07;;
12725;SDS011;6427;49.754;6.106;2022-07-29T13:20:05;8.15;;;2.45;;
12725;SDS011;6427;49.754;6.106;2022-07-29T13:22:32;3.53;;;2.37;;
12725;SDS011;6427;49.754;6.106;2022-07-29T13:25:01;3.00;;;1.90;;
12725;SDS011;6427;49.754;6.106;2022-07-29T13:27:30;3.37;;;2.07;;
12725;SDS011;6427;49.754;6.106;2022-07-29T13:29:57;4.53;;;2.17;;
12725;SDS011;6427;49.754;6.106;2022-07-29T13:32:25;5.27;;;2.17;;
12725;SDS011;6427;49.754;6.106;2022-07-29T13:34:55;5.95;;;2.30;;
12725;SDS011;6427;49.754;6.106;2022-07-29T13:37:23;5.03;;;1.90;;
12725;SDS011;6427;49.754;6.106;2022-07-29T13:39:50;4.47;;;2.33;;
12725;SDS011;6427;49.754;6.106;2022-07-29T13:42:18;4.62;;;2.20;;
12725;SDS011;6427;49.754;6.106;2022-07-29T13:44:46;2.93;;;2.27;;
12725;SDS011;6427;49.754;6.106;2022-07-29T13:47:13;3.77;;;2.37;;
12725;SDS011;6427;49.754;6.106;2022-07-29T13:49:42;4.47;;;2.20;;
12725;SDS011;6427;49.754;6.106;2022-07-29T13:52:09;6.77;;;1.90;;
12725;SDS011;6427;49.754;6.106;2022-07-29T13:54:37;2.40;;;1.97;;
12725;SDS011;6427;49.754;6.106;2022-07-29T13:57:07;4.90;;;2.20;;
12725;SDS011;6427;49.754;6.106;2022-07-29T13:59:34;5.13;;;2.60;;
12725;SDS011;6427;49.754;6.106;2022-07-29T14:02:03;6.77;;;2.23;;
12725;SDS011;6427;49.754;6.106;2022-07-29T14:04:31;3.77;;;2.07;;
12725;SDS011;6427;49.754;6.106;2022-07-29T14:06:59;6.73;;;2.33;;
12725;SDS011;6427;49.754;6.106;2022-07-29T14:09:26;5.30;;;2.30;;
12725;SDS011;6427;49.754;6.106;2022-07-29T14:11:54;3.85;;;2.55;;
12725;SDS011;6427;49.754;6.106;2022-07-29T14:14:22;4.73;;;2.10;;
12725;SDS011;6427;49.754;6.106;2022-07-29T14:16:49;6.17;;;2.40;;
12725;SDS011;6427;49.754;6.106;2022-07-29T14:19:17;2.27;;;1.77;;
12725;SDS011;6427;49.754;6.106;2022-07-29T14:21:44;6.20;;;2.27;;
12725;SDS011;6427;49.754;6.106;2022-07-29T14:24:12;7.00;;;2.20;;
12725;SDS011;6427;49.754;6.106;2022-07-29T14:26:39;3.90;;;2.27;;
12725;SDS011;6427;49.754;6.106;2022-07-29T14:29:07;2.93;;;2.00;;
12725;SDS011;6427;49.754;6.106;2022-07-29T14:31:35;8.03;;;1.93;;
12725;SDS011;6427;49.754;6.106;2022-07-29T14:34:04;4.67;;;2.50;;
12725;SDS011;6427;49.754;6.106;2022-07-29T14:36:31;3.43;;;2.20;;
12725;SDS011;6427;49.754;6.106;2022-07-29T14:39:00;3.17;;;1.90;;
12725;SDS011;6427;49.754;6.106;2022-07-29T14:41:28;5.93;;;2.20;;
12725;SDS011;6427;49.754;6.106;2022-07-29T14:43:56;3.93;;;2.17;;
12725;SDS011;6427;49.754;6.106;2022-07-29T14:46:23;7.23;;;2.40;;
12725;SDS011;6427;49.754;6.106;2022-07-29T14:48:51;5.82;;;2.50;;
12725;SDS011;6427;49.754;6.106;2022-07-29T14:51:18;4.97;;;2.57;;
12725;SDS011;6427;49.754;6.106;2022-07-29T14:53:46;3.90;;;2.27;;
12725;SDS011;6427;49.754;6.106;2022-07-29T14:56:14;2.77;;;2.30;;
12725;SDS011;6427;49.754;6.106;2022-07-29T14:58:41;4.03;;;2.40;;
12725;SDS011;6427;49.754;6.106;2022-07-29T15:01:09;5.33;;;2.17;;
12725;SDS011;6427;49.754;6.106;2022-07-29T15:03:36;4.60;;;2.33;;
12725;SDS011;6427;49.754;6.106;2022-07-29T15:06:04;3.93;;;2.00;;
12725;SDS011;6427;49.754;6.106;2022-07-29T15:08:31;3.73;;;2.27;;
12725;SDS011;6427;49.754;6.106;2022-07-29T15:11:00;3.80;;;2.37;;
12725;SDS011;6427;49.754;6.106;2022-07-29T15:13:27;7.73;;;2.10;;
12725;SDS011;6427;49.754;6.106;2022-07-29T15:15:56;3.17;;;2.30;;
12725;SDS011;6427;49.754;6.106;2022-07-29T15:18:24;6.13;;;2.33;;
12725;SDS011;6427;49.754;6.106;2022-07-29T15:20:52;4.73;;;2.13;;
12725;SDS011;6427;49.754;6.106;2022-07-29T15:23:19;3.87;;;2.00;;
12725;SDS011;6427;49.754;6.106;2022-07-29T15:25:47;4.57;;;2.30;;
12725;SDS011;6427;49.754;6.106;2022-07-29T15:28:14;11.50;;;2.00;;
12725;SDS011;6427;49.754;6.106;2022-07-29T15:30:42;5.50;;;2.50;;
12725;SDS011;6427;49.754;6.106;2022-07-29T15:33:11;2.07;;;1.87;;
12725;SDS011;6427;49.754;6.106;2022-07-29T15:35:39;4.80;;;2.37;;
12725;SDS011;6427;49.754;6.106;2022-07-29T15:38:06;5.77;;;2.40;;
12725;SDS011;6427;49.754;6.106;2022-07-29T15:40:36;5.03;;;2.50;;
12725;SDS011;6427;49.754;6.106;2022-07-29T15:43:04;4.90;;;2.00;;
12725;SDS011;6427;49.754;6.106;2022-07-29T15:45:38;6.40;;;2.40;;
12725;SDS011;6427;49.754;6.106;2022-07-29T15:48:06;3.37;;;2.30;;
12725;SDS011;6427;49.754;6.106;2022-07-29T15:50:33;6.57;;;2.43;;
12725;SDS011;6427;49.754;6.106;2022-07-29T15:53:01;3.57;;;2.00;;
12725;SDS011;6427;49.754;6.106;2022-07-29T15:55:28;3.87;;;2.28;;